Hernshaw, West Virginia
Current Conditions -  °F | °C
As of 6:54 AM on Monday 24 Nov 2014 (Local Time) from KCRW Reporting Station
Few Clouds Few Clouds  
Wind Chill: 62°   Ceiling: Unl
Heat Index: 62°   Visibility: 10mi
Dew Point: 50°   Wind: 14mph
Humidity: 65%   Direction: 190°S
Pressure: 29.51"   Gusts: 24mph
Location:  38.23°N, 81.61°W
Report Text: KCRW 241154Z 19012G21KT 10SM FEW020 FEW050 17/10 A2951 RMK AO2 SLP987 70007 T01670100 10189 20167 53003
Loading
Personal Weather Stations






























Interactive Weather Map New forecast layout! Learn more

10-Day Weather Forecast

Advertisements
Track Severe Weather on mobile